Time;durP1;ratioP1;P1;durP2;ratioP2;P2;SDS_P1;SDS_P2;PMS_P1;PMS_P2;Temp;Humidity;BMP_temperature;BMP_pressure;BME280_temperature;BME280_humidity;BME280_pressure;Samples;Min_cycle;Max_cycle;Signal;HPM_P1;HPM_P2
2023/05/01 00:01:00;;;;;;;8.27;5.05;;;;;;;11.82;82.00;100959.69;4990565;28;20049;-76
2023/05/01 00:03:27;;;;;;;7.93;5.32;;;;;;;11.83;81.67;100956.09;5001502;28;20062;-78
2023/05/01 00:06:00;;;;;;;8.85;4.85;;;;;;;11.87;81.75;100954.81;5007079;28;20049;-77
2023/05/01 00:08:26;;;;;;;7.70;5.13;;;;;;;11.94;81.74;100959.28;4996626;28;20088;-77
2023/05/01 00:10:56;;;;;;;6.97;5.03;;;;;;;11.86;81.49;100951.34;4988989;28;20133;-75
2023/05/01 00:13:23;;;;;;;9.02;5.25;;;;;;;11.81;81.69;100953.66;4982436;28;20093;-76
2023/05/01 00:15:52;;;;;;;11.68;5.35;;;;;;;11.80;81.96;100943.31;4984111;28;20118;-77
2023/05/01 00:18:19;;;;;;;6.38;5.30;;;;;;;11.75;82.23;100940.31;4981395;28;20058;-77
2023/05/01 00:20:49;;;;;;;9.18;5.50;;;;;;;11.74;82.71;100938.66;4983366;28;20042;-78
2023/05/01 00:23:16;;;;;;;8.05;5.55;;;;;;;11.74;82.83;100943.91;4983712;28;20047;-78
2023/05/01 00:25:43;;;;;;;14.07;5.55;;;;;;;11.76;83.33;100939.34;4983078;28;20057;-77
2023/05/01 00:28:10;;;;;;;8.45;5.60;;;;;;;11.75;83.45;100941.13;4982510;28;20053;-75
2023/05/01 00:30:37;;;;;;;11.65;5.57;;;;;;;11.70;83.42;100934.72;4981236;28;20043;-77
2023/05/01 00:33:07;;;;;;;15.43;6.45;;;;;;;11.70;83.06;100932.91;4983626;28;20054;-77
2023/05/01 00:35:34;;;;;;;10.40;6.93;;;;;;;11.67;82.02;100921.91;4983927;28;20492;-77
2023/05/01 00:38:01;;;;;;;8.80;5.95;;;;;;;11.73;81.13;100919.50;4978171;28;20062;-77
2023/05/01 00:40:28;;;;;;;7.93;5.70;;;;;;;11.79;80.25;100916.28;4980020;28;20047;-77
2023/05/01 00:42:54;;;;;;;8.00;5.85;;;;;;;11.82;79.95;100918.56;4981757;28;20070;-77
2023/05/01 00:45:21;;;;;;;10.07;5.63;;;;;;;11.86;80.22;100916.44;4976335;28;20058;-77
2023/05/01 00:47:48;;;;;;;7.22;5.88;;;;;;;11.88;80.22;100922.34;4982831;28;20483;-76
2023/05/01 00:50:17;;;;;;;7.72;6.05;;;;;;;11.76;79.81;100915.75;4981603;28;20043;-76
2023/05/01 00:52:43;;;;;;;9.80;5.95;;;;;;;11.71;79.46;100918.00;4980947;28;20047;-77
2023/05/01 00:55:10;;;;;;;7.88;6.47;;;;;;;11.73;79.14;100908.19;4974391;28;20150;-77
2023/05/01 00:57:37;;;;;;;10.25;6.60;;;;;;;11.75;79.09;100903.63;4981148;28;20051;-75
2023/05/01 01:00:04;;;;;;;11.25;6.47;;;;;;;11.75;79.00;100888.69;4982580;28;20060;-77
2023/05/01 01:02:31;;;;;;;11.90;6.47;;;;;;;11.70;79.00;100896.22;4977416;28;20477;-77
2023/05/01 01:04:58;;;;;;;9.25;6.38;;;;;;;11.74;79.91;100894.94;4982826;28;20050;-77
2023/05/01 01:07:34;;;;;;;8.77;6.10;;;;;;;11.77;80.23;100896.44;4979443;28;20086;-77
2023/05/01 01:10:10;;;;;;;9.27;5.90;;;;;;;11.67;79.70;100898.31;4978581;28;20085;-77
2023/05/01 01:12:44;;;;;;;7.15;5.28;;;;;;;11.65;79.34;100880.13;4976840;28;20506;-78
2023/05/01 01:15:18;;;;;;;7.13;5.65;;;;;;;11.75;78.59;100882.63;4979061;28;20550;-77
2023/05/01 01:17:54;;;;;;;11.65;5.70;;;;;;;11.79;77.92;100876.97;4981332;28;20085;-77
2023/05/01 01:20:31;;;;;;;9.63;6.05;;;;;;;11.86;77.51;100871.88;4977497;28;20573;-77
2023/05/01 01:23:13;;;;;;;8.85;5.47;;;;;;;11.88;77.15;100872.53;4979332;28;20519;-77
2023/05/01 01:25:57;;;;;;;8.40;5.00;;;;;;;11.85;76.64;100862.38;4979196;28;20113;-76
2023/05/01 01:29:01;;;;;;;7.85;5.55;;;;;;;11.85;77.10;100865.81;4979417;28;20125;-77
2023/05/01 01:31:35;;;;;;;7.97;5.93;;;;;;;11.83;77.55;100864.31;4982031;28;20122;-76
2023/05/01 01:34:08;;;;;;;10.23;5.30;;;;;;;11.82;78.06;100871.38;4977302;28;20081;-73
2023/05/01 01:36:47;;;;;;;10.23;5.78;;;;;;;11.69;78.37;100864.91;4980901;28;20141;-77
2023/05/01 01:39:24;;;;;;;9.20;5.18;;;;;;;11.67;78.83;100853.75;4978580;28;20429;-77
2023/05/01 01:41:53;;;;;;;6.68;5.30;;;;;;;11.64;79.20;100860.97;4984841;28;20453;-77
2023/05/01 01:44:25;;;;;;;8.95;5.75;;;;;;;11.61;79.59;100848.16;4981769;28;20175;-76
2023/05/01 01:46:59;;;;;;;11.88;5.97;;;;;;;11.58;80.24;100845.84;4984011;28;20506;-77
2023/05/01 01:49:31;;;;;;;7.93;5.55;;;;;;;11.58;79.88;100850.28;4981987;28;20059;-76
2023/05/01 01:52:02;;;;;;;8.20;5.55;;;;;;;11.49;80.44;100849.41;4976438;28;20051;-76
2023/05/01 01:54:33;;;;;;;9.55;5.72;;;;;;;11.49;80.29;100851.22;4976906;28;20047;-77
2023/05/01 01:57:02;;;;;;;7.20;5.63;;;;;;;11.55;81.49;100854.03;4984999;28;20079;-77
2023/05/01 01:59:31;;;;;;;9.63;5.93;;;;;;;11.48;81.44;100839.09;4980208;28;20141;-74
2023/05/01 02:02:00;;;;;;;6.63;5.32;;;;;;;11.50;81.10;100840.56;4980277;28;20049;-78
2023/05/01 02:04:30;;;;;;;7.78;5.80;;;;;;;11.53;81.13;100848.13;4970786;28;20059;-77
2023/05/01 02:06:58;;;;;;;7.78;5.80;;;;;;;11.55;80.19;100834.88;4967611;28;20081;-76
2023/05/01 02:09:26;;;;;;;7.85;5.50;;;;;;;11.57;80.58;100844.22;4975940;28;20343;-76
2023/05/01 02:11:54;;;;;;;7.07;5.32;;;;;;;11.56;80.67;100839.94;4974739;28;20058;-79
2023/05/01 02:14:22;;;;;;;8.70;5.78;;;;;;;11.54;79.78;100828.81;4971462;28;20511;-76
2023/05/01 02:16:50;;;;;;;11.20;5.75;;;;;;;11.47;79.85;100821.72;4973231;28;20057;-76
2023/05/01 02:19:17;;;;;;;7.75;5.68;;;;;;;11.43;80.40;100821.22;4974423;28;20483;-75
2023/05/01 02:21:46;;;;;;;7.97;5.80;;;;;;;11.43;80.62;100829.06;4972869;28;20461;-75
2023/05/01 02:24:13;;;;;;;7.13;5.22;;;;;;;11.40;80.68;100826.75;4970767;28;20134;-77
2023/05/01 02:26:43;;;;;;;7.60;6.00;;;;;;;11.34;80.56;100816.94;4971830;28;20175;-74
2023/05/01 02:29:10;;;;;;;10.65;6.40;;;;;;;11.37;80.58;100821.84;4971757;28;20051;-76
2023/05/01 02:31:37;;;;;;;8.50;5.60;;;;;;;11.36;80.98;100816.75;4970188;28;20165;-76
2023/05/01 02:34:03;;;;;;;8.55;5.97;;;;;;;11.32;81.05;100808.41;4963328;28;20047;-75
2023/05/01 02:36:32;;;;;;;6.63;5.78;;;;;;;11.38;80.84;100806.94;4962580;28;20141;-76
2023/05/01 02:39:01;;;;;;;9.55;5.70;;;;;;;11.28;81.01;100796.59;4970385;28;20047;-75
2023/05/01 02:41:28;;;;;;;9.50;6.18;;;;;;;11.33;80.63;100804.81;4970441;28;20149;-76
2023/05/01 02:44:03;;;;;;;7.85;5.70;;;;;;;11.32;80.15;100797.94;4970619;28;20133;-77
2023/05/01 02:46:32;;;;;;;8.38;5.75;;;;;;;11.34;80.22;100790.75;4970589;28;20090;-77
2023/05/01 02:49:00;;;;;;;8.98;5.88;;;;;;;11.35;79.88;100794.97;4971285;28;20063;-77
2023/05/01 02:51:29;;;;;;;8.88;5.93;;;;;;;11.33;80.45;100789.09;4970569;28;20129;-77
2023/05/01 02:53:56;;;;;;;8.60;5.55;;;;;;;11.36;80.13;100777.44;4970690;28;20051;-77
2023/05/01 02:56:25;;;;;;;8.88;6.05;;;;;;;11.36;80.63;100775.66;4969911;28;20047;-76
2023/05/01 02:58:52;;;;;;;10.50;5.40;;;;;;;11.31;80.32;100783.19;4973429;28;20396;-77
2023/05/01 03:01:19;;;;;;;11.15;6.15;;;;;;;11.30;80.39;100773.69;4970007;28;20055;-77
2023/05/01 03:03:46;;;;;;;6.78;5.70;;;;;;;11.28;80.89;100770.41;4971075;28;20078;-77
2023/05/01 03:06:13;;;;;;;7.43;5.57;;;;;;;11.21;81.41;100772.00;4970243;28;20050;-77
2023/05/01 03:08:40;;;;;;;6.53;5.35;;;;;;;11.25;81.48;100770.72;4970536;28;20406;-77
2023/05/01 03:11:07;;;;;;;8.80;5.80;;;;;;;11.21;81.75;100772.00;4969620;28;20133;-75
2023/05/01 03:13:35;;;;;;;6.95;5.40;;;;;;;11.15;82.28;100767.38;4971296;28;20503;-77
2023/05/01 03:16:03;;;;;;;8.02;5.65;;;;;;;11.13;82.34;100761.50;4970070;28;20056;-78
2023/05/01 03:18:30;;;;;;;7.65;6.07;;;;;;;11.10;82.60;100767.03;4970011;28;20073;-77
2023/05/01 03:20:57;;;;;;;11.13;6.05;;;;;;;11.03;82.84;100751.13;4970129;28;20606;-77
2023/05/01 03:23:23;;;;;;;10.57;5.90;;;;;;;11.00;83.25;100755.84;4967944;28;20065;-77
2023/05/01 03:25:50;;;;;;;9.00;6.00;;;;;;;10.95;83.25;100758.94;4965298;28;20057;-75
2023/05/01 03:28:17;;;;;;;9.02;5.72;;;;;;;10.96;83.09;100750.91;4969654;28;20426;-78
2023/05/01 03:30:45;;;;;;;7.32;6.10;;;;;;;10.93;82.94;100751.22;4969722;28;20121;-77
2023/05/01 03:33:12;;;;;;;8.18;5.60;;;;;;;10.92;82.88;100744.34;4969825;28;20129;-78
2023/05/01 03:35:38;;;;;;;10.07;5.85;;;;;;;10.93;82.70;100740.75;4969908;28;20524;-78
2023/05/01 03:38:05;;;;;;;8.55;5.93;;;;;;;10.92;83.11;100739.13;4969300;28;20209;-79
2023/05/01 03:40:31;;;;;;;7.88;6.00;;;;;;;10.89;82.90;100744.66;4969863;28;20127;-78
2023/05/01 03:42:58;;;;;;;7.57;5.80;;;;;;;10.85;83.02;100743.34;4969781;28;20047;-75
2023/05/01 03:45:24;;;;;;;9.55;6.35;;;;;;;10.82;82.74;100743.66;4965067;28;20297;-77
2023/05/01 03:47:53;;;;;;;8.00;6.28;;;;;;;10.79;83.17;100741.34;4968979;28;20070;-78
2023/05/01 03:50:19;;;;;;;10.82;6.35;;;;;;;10.78;83.06;100737.09;4968664;28;20069;-79
2023/05/01 03:52:46;;;;;;;11.02;6.35;;;;;;;10.71;83.64;100737.84;4969202;28;20043;-76
2023/05/01 03:55:12;;;;;;;9.18;6.32;;;;;;;10.65;83.78;100736.69;4969455;28;20132;-77
2023/05/01 03:57:39;;;;;;;8.18;6.35;;;;;;;10.59;84.28;100735.50;4968935;28;20050;-77
2023/05/01 04:00:07;;;;;;;7.45;6.05;;;;;;;10.56;84.13;100734.97;5053465;23;20094;-75
2023/05/01 04:02:33;;;;;;;10.95;6.72;;;;;;;10.55;84.19;100735.94;5083082;28;20131;-77
2023/05/01 04:05:01;;;;;;;10.30;6.88;;;;;;;10.53;83.80;100730.88;5079617;28;20048;-76
2023/05/01 04:07:28;;;;;;;8.98;5.63;;;;;;;10.50;84.04;100728.56;5078906;28;20052;-77
2023/05/01 04:09:57;;;;;;;7.20;5.78;;;;;;;10.49;84.46;100736.56;5087338;28;20535;-77
2023/05/01 04:12:24;;;;;;;9.48;6.30;;;;;;;10.48;84.80;100740.97;5087034;28;20196;-77
2023/05/01 04:14:51;;;;;;;8.50;6.47;;;;;;;10.49;84.05;100732.16;5080648;28;20078;-76
2023/05/01 04:17:17;;;;;;;8.25;6.10;;;;;;;10.49;83.90;100732.16;5084014;28;20503;-77
2023/05/01 04:19:46;;;;;;;10.35;6.25;;;;;;;10.46;83.66;100726.41;5085257;28;20054;-77
2023/05/01 04:22:15;;;;;;;9.60;6.32;;;;;;;10.45;83.92;100732.59;5080202;28;20072;-77
2023/05/01 04:24:41;;;;;;;8.07;6.38;;;;;;;10.44;84.00;100729.16;5082577;28;20106;-77
2023/05/01 04:27:08;;;;;;;8.70;5.88;;;;;;;10.47;83.53;100728.03;5082547;28;20537;-77
2023/05/01 04:29:34;;;;;;;7.82;6.70;;;;;;;10.46;83.46;100732.44;5087276;28;20044;-77
2023/05/01 04:32:01;;;;;;;8.48;6.30;;;;;;;10.49;83.90;100729.53;5082768;28;20055;-76
2023/05/01 04:34:28;;;;;;;7.90;6.30;;;;;;;10.47;83.55;100730.66;5082244;28;20055;-77
2023/05/01 04:36:56;;;;;;;7.30;6.38;;;;;;;10.45;83.10;100722.13;5079826;28;20044;-76
2023/05/01 04:39:24;;;;;;;14.73;6.55;;;;;;;10.47;83.21;100722.81;5081242;28;20051;-76
2023/05/01 04:41:50;;;;;;;9.77;7.10;;;;;;;10.49;83.10;100716.44;5083016;28;20058;-76
2023/05/01 04:44:17;;;;;;;6.97;6.18;;;;;;;10.47;83.39;100721.00;5081301;28;20132;-77
2023/05/01 04:46:44;;;;;;;8.68;6.07;;;;;;;10.48;83.15;100722.66;5085139;28;20147;-77
2023/05/01 04:49:10;;;;;;;8.82;6.32;;;;;;;10.52;82.99;100725.78;5084173;28;20127;-77
2023/05/01 04:51:37;;;;;;;9.95;6.45;;;;;;;10.49;83.24;100724.28;5086640;28;20563;-76
2023/05/01 04:54:04;;;;;;;8.57;6.35;;;;;;;10.55;83.12;100725.47;5079654;28;20131;-77
2023/05/01 04:56:32;;;;;;;8.57;6.18;;;;;;;10.58;82.97;100726.00;5081886;28;20432;-76
2023/05/01 04:58:59;;;;;;;10.95;6.57;;;;;;;10.64;83.13;100721.94;5079810;28;20084;-77
2023/05/01 05:01:25;;;;;;;11.05;6.75;;;;;;;10.68;82.99;100723.28;5086407;28;20092;-77
2023/05/01 05:03:52;;;;;;;10.52;6.43;;;;;;;10.86;82.46;100731.91;5085459;28;20132;-77
2023/05/01 05:06:19;;;;;;;9.38;6.85;;;;;;;10.93;82.76;100719.00;5084435;28;20062;-77
2023/05/01 05:08:45;;;;;;;10.70;6.43;;;;;;;10.89;82.33;100728.13;5086437;28;20501;-77
2023/05/01 05:11:12;;;;;;;8.13;6.65;;;;;;;10.97;81.97;100712.47;5083505;28;20489;-77
2023/05/01 05:13:40;;;;;;;8.98;6.78;;;;;;;11.01;82.02;100720.84;5082281;28;20041;-76
2023/05/01 05:16:07;;;;;;;9.85;6.53;;;;;;;11.04;81.54;100723.13;5085871;28;20040;-76
2023/05/01 05:18:33;;;;;;;9.50;6.57;;;;;;;11.06;81.49;100722.00;5082722;28;20044;-76
2023/05/01 05:21:03;;;;;;;8.63;6.90;;;;;;;11.07;81.74;100728.88;5086679;28;20052;-76
2023/05/01 05:23:30;;;;;;;8.90;6.35;;;;;;;11.14;81.71;100727.28;5083475;28;20053;-77
2023/05/01 05:25:57;;;;;;;9.57;6.82;;;;;;;11.04;81.88;100720.53;5087261;28;20105;-77
2023/05/01 05:28:23;;;;;;;7.95;6.60;;;;;;;11.21;82.14;100723.06;5085636;28;20458;-75
2023/05/01 05:30:51;;;;;;;9.68;6.75;;;;;;;11.17;81.94;100726.16;5086846;28;20058;-76
2023/05/01 05:33:18;;;;;;;8.18;6.57;;;;;;;11.14;81.89;100718.59;5086867;28;20061;-77
2023/05/01 05:35:45;;;;;;;9.85;6.60;;;;;;;11.23;82.07;100728.16;5087600;28;20067;-77
2023/05/01 05:38:12;;;;;;;9.02;6.63;;;;;;;11.23;82.39;100720.28;5086574;28;20487;-77
2023/05/01 05:40:39;;;;;;;10.23;6.82;;;;;;;11.18;82.59;100720.75;5090828;28;20062;-77
2023/05/01 05:43:05;;;;;;;10.07;6.75;;;;;;;11.18;82.86;100722.56;5086656;28;20047;-75
2023/05/01 05:45:33;;;;;;;7.93;6.97;;;;;;;11.17;83.23;100728.78;5086061;28;20173;-76
2023/05/01 05:48:01;;;;;;;8.38;6.63;;;;;;;11.22;83.25;100721.25;5087349;28;20079;-76
2023/05/01 05:50:28;;;;;;;8.85;6.68;;;;;;;11.31;83.08;100715.09;5086845;28;20155;-76
2023/05/01 05:52:55;;;;;;;9.48;6.22;;;;;;;11.39;82.43;100725.56;5088205;28;20044;-75
2023/05/01 05:55:22;;;;;;;9.70;6.90;;;;;;;11.43;81.88;100710.34;5085825;28;20048;-76
2023/05/01 05:57:48;;;;;;;9.52;6.68;;;;;;;11.49;81.54;100710.53;5085546;28;20139;-76
2023/05/01 06:00:16;;;;;;;10.65;6.50;;;;;;;11.61;81.34;100713.69;5088143;28;20701;-77
2023/05/01 06:02:42;;;;;;;9.40;5.97;;;;;;;11.68;81.21;100716.47;5091312;28;20072;-77
2023/05/01 06:05:11;;;;;;;10.18;6.55;;;;;;;11.73;80.84;100717.63;5084708;28;20131;-76
2023/05/01 06:07:38;;;;;;;7.90;6.97;;;;;;;11.84;80.59;100719.13;5086971;28;20139;-76
2023/05/01 06:10:06;;;;;;;8.30;5.82;;;;;;;11.86;79.79;100711.94;5083591;28;20047;-76
2023/05/01 06:12:33;;;;;;;10.35;7.03;;;;;;;11.96;79.81;100712.59;5089717;28;20127;-76
2023/05/01 06:14:59;;;;;;;9.70;6.43;;;;;;;12.01;79.97;100712.94;5090418;28;20055;-76
2023/05/01 06:17:26;;;;;;;8.52;6.50;;;;;;;12.10;79.25;100709.34;5101229;28;20115;-76
2023/05/01 06:19:53;;;;;;;11.18;6.53;;;;;;;12.22;79.55;100713.28;5100559;28;20052;-77
2023/05/01 06:22:21;;;;;;;8.80;6.35;;;;;;;12.32;79.24;100705.22;5093118;28;20055;-76
2023/05/01 06:24:47;;;;;;;10.50;6.32;;;;;;;12.38;78.64;100706.38;5089807;28;20142;-76
2023/05/01 06:27:14;;;;;;;8.27;6.18;;;;;;;12.46;77.99;100698.47;5088291;28;20113;-76
2023/05/01 06:29:41;;;;;;;7.30;6.05;;;;;;;12.52;77.53;100703.06;5087262;28;20134;-75
2023/05/01 06:32:07;;;;;;;10.75;6.47;;;;;;;12.60;77.25;100695.19;5086625;28;20475;-75
2023/05/01 06:34:34;;;;;;;7.65;6.07;;;;;;;12.85;76.63;100698.53;5086011;28;20066;-75
2023/05/01 06:37:01;;;;;;;9.27;5.90;;;;;;;13.04;75.89;100702.59;5086202;28;20063;-75
2023/05/01 06:39:28;;;;;;;8.13;5.75;;;;;;;13.21;75.30;100709.47;5089332;28;20217;-76
2023/05/01 06:41:55;;;;;;;9.15;6.10;;;;;;;13.36;74.82;100702.47;5090037;28;20048;-76
2023/05/01 06:44:22;;;;;;;6.97;5.65;;;;;;;13.63;74.28;100695.09;5084323;28;20132;-76
2023/05/01 06:46:49;;;;;;;8.90;5.68;;;;;;;13.85;73.63;100696.91;5087966;28;20504;-76
2023/05/01 06:49:15;;;;;;;8.45;5.65;;;;;;;13.80;73.61;100692.16;5085910;28;20051;-76
2023/05/01 06:51:42;;;;;;;8.27;5.30;;;;;;;13.77;73.18;100691.69;5087676;28;20138;-76
2023/05/01 06:54:09;;;;;;;9.52;5.97;;;;;;;13.64;73.25;100689.69;5083634;28;20488;-76
2023/05/01 06:56:37;;;;;;;6.75;5.38;;;;;;;13.60;73.50;100694.47;5086478;28;20063;-76
2023/05/01 06:59:03;;;;;;;6.70;5.20;;;;;;;13.55;73.40;100696.78;5083960;28;20047;-76
2023/05/01 07:01:30;;;;;;;8.15;5.53;;;;;;;13.90;73.19;100697.19;5091192;28;20052;-77
2023/05/01 07:03:57;;;;;;;8.40;5.53;;;;;;;13.94;73.34;100695.84;5085138;28;20044;-76
2023/05/01 07:06:23;;;;;;;8.38;5.50;;;;;;;14.06;72.86;100689.19;5077415;28;20170;-76
2023/05/01 07:08:50;;;;;;;7.63;5.50;;;;;;;13.97;73.03;100690.25;5080386;28;20051;-76
2023/05/01 07:11:17;;;;;;;7.25;5.82;;;;;;;14.05;73.00;100686.75;5084205;28;20048;-76
2023/05/01 07:13:45;;;;;;;7.70;5.70;;;;;;;13.94;72.49;100691.41;5083685;28;20078;-77
2023/05/01 07:16:12;;;;;;;7.30;5.65;;;;;;;14.08;72.39;100687.19;5085511;28;20171;-76
2023/05/01 07:18:38;;;;;;;8.63;5.88;;;;;;;14.35;72.62;100696.31;5086517;28;20139;-76
2023/05/01 07:21:05;;;;;;;11.73;6.10;;;;;;;14.09;72.94;100688.03;5082671;28;20508;-76
2023/05/01 07:23:32;;;;;;;8.30;5.68;;;;;;;14.06;72.86;100689.19;5081761;28;20115;-76
2023/05/01 07:25:58;;;;;;;8.40;5.40;;;;;;;14.57;71.20;100690.22;5086832;28;20056;-77
2023/05/01 07:28:25;;;;;;;8.18;5.57;;;;;;;14.32;70.69;100680.88;5087987;28;20419;-77
2023/05/01 07:30:53;;;;;;;10.25;5.18;;;;;;;14.70;70.28;100684.31;5085630;28;20119;-77
2023/05/01 07:33:19;;;;;;;9.07;5.53;;;;;;;14.51;70.19;100684.84;5090204;28;20132;-77
2023/05/01 07:35:46;;;;;;;8.13;5.65;;;;;;;14.26;70.04;100666.63;5081893;28;20062;-77
2023/05/01 07:38:14;;;;;;;8.40;5.30;;;;;;;14.36;70.19;100676.09;5083356;28;20056;-76
2023/05/01 07:40:41;;;;;;;8.68;5.47;;;;;;;14.26;69.98;100677.16;5089179;28;20040;-77
2023/05/01 07:43:09;;;;;;;9.93;5.35;;;;;;;14.53;69.99;100677.59;5081136;28;20052;-76
2023/05/01 07:45:36;;;;;;;7.93;5.47;;;;;;;14.85;69.39;100676.41;5091103;28;20048;-77
2023/05/01 07:48:08;;;;;;;7.75;5.45;;;;;;;15.03;69.38;100683.94;5091364;28;20475;-76
2023/05/01 07:50:35;;;;;;;7.55;5.22;;;;;;;14.78;68.27;100678.13;5085633;28;20062;-76
2023/05/01 07:53:04;;;;;;;7.50;5.82;;;;;;;15.23;68.50;100677.09;5088821;28;20139;-76
2023/05/01 07:55:31;;;;;;;7.82;5.20;;;;;;;14.96;67.92;100664.59;5081006;28;20135;-77
2023/05/01 07:57:57;;;;;;;7.00;4.97;;;;;;;14.98;68.05;100670.50;5088320;28;20159;-77
2023/05/01 08:00:27;;;;;;;6.88;5.35;;;;;;;15.00;68.10;100681.69;5073606;28;20122;-77
2023/05/01 08:02:54;;;;;;;6.65;5.05;;;;;;;15.14;68.41;100672.91;5086938;28;20388;-77
2023/05/01 08:05:22;;;;;;;7.65;5.97;;;;;;;16.14;67.39;100672.91;5085215;28;20083;-77
2023/05/01 08:07:49;;;;;;;7.90;5.43;;;;;;;16.44;65.63;100665.63;5078358;28;20131;-77
2023/05/01 08:10:16;;;;;;;10.10;5.30;;;;;;;15.65;66.22;100671.06;5085795;28;20253;-76
2023/05/01 08:12:45;;;;;;;9.32;5.30;;;;;;;15.56;67.74;100678.31;5084722;28;20075;-76
2023/05/01 08:15:12;;;;;;;6.57;5.00;;;;;;;15.96;66.03;100673.41;5075717;28;20279;-76
2023/05/01 08:17:38;;;;;;;8.10;5.22;;;;;;;15.69;66.06;100671.50;5090640;28;20071;-77
2023/05/01 08:20:06;;;;;;;8.40;5.25;;;;;;;15.60;66.16;100673.44;5089136;28;20044;-77
2023/05/01 08:22:34;;;;;;;7.38;5.13;;;;;;;16.07;65.33;100670.22;5085374;28;20063;-76
2023/05/01 08:25:04;;;;;;;8.02;5.38;;;;;;;16.25;65.43;100673.22;5076098;28;20047;-76
2023/05/01 08:27:32;;;;;;;8.52;4.88;;;;;;;15.93;64.83;100679.88;5075087;28;20041;-77
2023/05/01 08:29:59;;;;;;;7.05;5.22;;;;;;;15.74;65.02;100669.94;5089211;28;20062;-76
2023/05/01 08:32:25;;;;;;;11.15;5.63;;;;;;;15.92;65.83;100669.50;5086129;28;20699;-76
2023/05/01 08:34:52;;;;;;;7.05;5.20;;;;;;;15.72;65.71;100661.41;5089219;28;20123;-75
2023/05/01 08:37:18;;;;;;;7.05;5.38;;;;;;;15.41;65.70;100656.41;5091170;28;20051;-73
2023/05/01 08:39:47;;;;;;;8.27;4.97;;;;;;;15.53;66.46;100670.75;5091863;28;20111;-76
2023/05/01 08:42:15;;;;;;;7.97;5.13;;;;;;;16.05;66.58;100668.81;5083051;28;20128;-76
2023/05/01 08:44:42;;;;;;;9.75;5.70;;;;;;;16.02;66.65;100680.56;5082165;28;20041;-77
2023/05/01 08:47:14;;;;;;;6.88;5.47;;;;;;;15.92;66.19;100653.69;5087894;28;20058;-76
2023/05/01 08:49:47;;;;;;;6.10;4.90;;;;;;;15.85;66.48;100669.44;5091121;28;20048;-76
2023/05/01 08:52:15;;;;;;;6.53;4.65;;;;;;;16.87;65.63;100676.88;5085553;28;20057;-78
2023/05/01 08:54:48;;;;;;;12.85;5.68;;;;;;;16.77;64.13;100666.66;5088711;28;20067;-76
2023/05/01 08:57:16;;;;;;;;;;;;;;;15.89;64.89;100664.59;5094048;28;20055;-79
2023/05/01 08:59:50;;;;;;;8.73;6.38;;;;;;;16.65;65.11;100672.69;5087497;28;19946;-77
2023/05/01 09:02:20;;;;;;;7.82;5.32;;;;;;;17.25;63.56;100669.31;5079727;28;20127;-78
2023/05/01 09:04:48;;;;;;;7.68;4.88;;;;;;;17.37;62.88;100669.56;5090171;28;20052;-77
2023/05/01 09:07:15;;;;;;;6.90;5.28;;;;;;;17.63;61.58;100674.06;5078465;28;20040;-76
2023/05/01 09:09:50;;;;;;;8.15;5.13;;;;;;;17.83;61.91;100683.72;5070725;28;20056;-76
2023/05/01 09:12:25;;;;;;;9.98;6.15;;;;;;;16.97;61.96;100668.59;5075228;28;20048;-78
2023/05/01 09:14:54;;;;;;;7.28;5.05;;;;;;;16.26;63.41;100666.94;5070651;28;20052;-78
2023/05/01 09:17:22;;;;;;;8.13;5.78;;;;;;;16.69;63.46;100674.75;5084479;28;20059;-76
2023/05/01 09:19:55;;;;;;;8.45;6.05;;;;;;;16.85;63.20;100676.28;5080477;28;20068;-75
2023/05/01 09:22:27;;;;;;;10.00;5.22;;;;;;;17.78;61.19;100656.22;5091986;28;20052;-77
2023/05/01 09:24:59;;;;;;;8.35;5.10;;;;;;;17.49;61.34;100663.47;5093912;28;20055;-79
2023/05/01 09:27:29;;;;;;;8.10;5.50;;;;;;;17.71;60.76;100647.47;5111420;28;20056;-78
2023/05/01 09:29:56;;;;;;;7.38;5.05;;;;;;;18.83;59.59;100660.63;5100168;28;20539;-77
2023/05/01 09:32:26;;;;;;;10.40;5.40;;;;;;;18.37;58.42;100656.22;5088409;28;20044;-77
2023/05/01 09:34:57;;;;;;;7.35;5.25;;;;;;;18.34;58.59;100661.09;5090160;28;20127;-77
2023/05/01 09:37:29;;;;;;;7.72;5.70;;;;;;;18.18;59.53;100652.56;5072067;28;20099;-77
2023/05/01 09:40:08;;;;;;;6.00;5.40;;;;;;;18.96;58.87;100659.72;5085764;28;20051;-77
2023/05/01 09:42:36;;;;;;;8.18;5.20;;;;;;;18.60;58.61;100655.78;5085421;28;20049;-77
2023/05/01 09:45:04;;;;;;;11.25;5.40;;;;;;;18.23;58.59;100655.41;5085622;28;20075;-77
2023/05/01 09:47:32;;;;;;;8.10;5.60;;;;;;;19.15;57.43;100656.19;5079060;28;20044;-76
2023/05/01 09:50:00;;;;;;;8.38;5.65;;;;;;;18.85;58.02;100651.44;5080066;28;20048;-77
2023/05/01 09:52:27;;;;;;;9.32;5.60;;;;;;;18.24;58.19;100645.63;5074300;28;20109;-76
2023/05/01 09:55:14;;;;;;;9.05;6.45;;;;;;;18.83;57.10;100640.22;5074315;28;20040;-75
2023/05/01 09:57:44;;;;;;;8.85;5.45;;;;;;;19.62;56.05;100643.50;5078670;28;20052;-76
2023/05/01 10:00:14;;;;;;;9.68;6.28;;;;;;;18.67;57.04;100637.19;5098822;22;20045;-79
2023/05/01 10:02:43;;;;;;;12.60;5.93;;;;;;;18.61;58.06;100643.34;5049899;28;20080;-79
2023/05/01 10:05:10;;;;;;;8.55;5.35;;;;;;;18.63;58.79;100631.50;5043081;28;20138;-79
2023/05/01 10:07:38;;;;;;;7.60;5.32;;;;;;;19.20;57.18;100643.91;5042199;28;20049;-79
2023/05/01 10:10:20;;;;;;;13.07;5.57;;;;;;;18.99;58.27;100646.06;5048720;28;20045;-80
2023/05/01 10:12:47;;;;;;;7.83;5.33;;;;;;;19.51;56.96;100640.50;5038599;28;20063;-78
2023/05/01 10:15:14;;;;;;;9.07;5.40;;;;;;;19.07;57.62;100632.56;5046774;28;20347;-81
2023/05/01 10:17:43;;;;;;;7.65;5.38;;;;;;;19.84;57.16;100636.81;5052691;28;20152;-79
2023/05/01 10:20:12;;;;;;;7.22;5.60;;;;;;;19.92;56.85;100636.50;5054039;28;20119;-78
2023/05/01 10:22:39;;;;;;;6.57;4.72;;;;;;;19.27;55.33;100622.66;5049153;28;20497;-76
2023/05/01 10:25:09;;;;;;;9.02;5.07;;;;;;;20.28;55.36;100624.34;5047282;28;20073;-79
2023/05/01 10:27:38;;;;;;;6.07;4.90;;;;;;;20.72;54.29;100621.44;5055860;28;20060;-79
2023/05/01 10:30:06;;;;;;;6.97;4.80;;;;;;;20.73;53.05;100617.75;5059389;28;20033;-79
2023/05/01 10:32:33;;;;;;;7.40;4.72;;;;;;;20.35;54.14;100609.13;5049618;28;20056;-79
2023/05/01 10:35:05;;;;;;;9.73;4.90;;;;;;;20.07;54.87;100622.91;5058237;28;20066;-78
2023/05/01 10:37:38;;;;;;;9.57;4.65;;;;;;;20.95;54.18;100628.72;5045965;28;20072;-80
2023/05/01 10:40:41;;;;;;;6.30;4.88;;;;;;;21.13;52.65;100615.38;5053447;28;20044;-78
2023/05/01 10:43:24;;;;;;;6.57;4.57;;;;;;;20.31;54.41;100613.28;5039845;28;20088;-79
2023/05/01 10:45:52;;;;;;;;;;;;;;;20.23;55.88;100621.53;5038689;28;20509;-79
2023/05/01 10:48:53;;;;;;;6.00;4.72;;;;;;;20.14;55.63;100616.50;5038696;28;20358;-78
2023/05/01 10:51:21;;;;;;;8.27;5.00;;;;;;;20.28;55.35;100616.38;5036720;28;20056;-78
2023/05/01 10:53:49;;;;;;;5.93;4.70;;;;;;;20.65;54.64;100610.06;5032855;28;20156;-78
2023/05/01 10:56:43;;;;;;;6.88;5.40;;;;;;;20.96;55.24;100610.91;5034842;28;20076;-79
2023/05/01 10:59:12;;;;;;;7.22;6.45;;;;;;;20.92;54.44;100615.84;4988635;28;20183;-78
2023/05/01 11:01:40;;;;;;;6.80;5.70;;;;;;;20.77;54.59;100602.97;5036946;28;20073;-79
2023/05/01 11:04:08;;;;;;;7.53;5.85;;;;;;;20.40;54.91;100607.47;5036157;28;20069;-79
2023/05/01 11:06:37;;;;;;;9.95;5.55;;;;;;;20.56;55.03;100608.72;5036315;28;20103;-79
2023/05/01 11:09:37;;;;;;;39.65;7.43;;;;;;;20.06;54.89;100608.81;5034309;28;20073;-77
2023/05/01 11:12:05;;;;;;;10.45;5.82;;;;;;;20.06;55.40;100610.66;5033386;28;20037;-78
2023/05/01 11:15:04;;;;;;;8.05;5.45;;;;;;;20.36;55.13;100608.09;5032187;28;20089;-80
2023/05/01 11:17:52;;;;;;;7.30;5.40;;;;;;;20.50;55.59;100606.97;5031099;28;20049;-78
2023/05/01 11:20:48;;;;;;;8.38;6.38;;;;;;;20.72;54.44;100610.81;5030650;28;20049;-79
2023/05/01 11:23:22;;;;;;;7.88;6.10;;;;;;;20.99;54.17;100605.94;5033657;28;20417;-80
2023/05/01 11:25:52;;;;;;;8.80;6.55;;;;;;;21.05;54.60;100607.72;5036288;28;20045;-79
2023/05/01 11:28:21;;;;;;;7.90;5.82;;;;;;;21.02;54.56;100615.31;5042802;28;20057;-79
2023/05/01 11:30:49;;;;;;;8.65;5.57;;;;;;;21.31;54.36;100603.88;5042768;28;20420;-79
2023/05/01 11:33:24;;;;;;;7.97;5.25;;;;;;;21.02;54.22;100607.34;5045133;28;20072;-80